createdAt,value
2018-09-06T00:00:21.515Z,16.60
2018-09-06T00:02:48.742Z,16.70
2018-09-06T00:05:15.954Z,16.80
2018-09-06T00:07:43.186Z,16.70
2018-09-06T00:10:10.424Z,16.70
2018-09-06T00:12:37.641Z,16.70
2018-09-06T00:15:05.046Z,16.70
2018-09-06T00:17:32.281Z,16.70
2018-09-06T00:19:59.494Z,16.80
2018-09-06T00:22:26.737Z,16.80
2018-09-06T00:24:54.022Z,16.80
2018-09-06T00:27:21.675Z,16.70
2018-09-06T00:29:48.897Z,16.80
2018-09-06T00:32:16.126Z,16.70
2018-09-06T00:34:43.325Z,16.60
2018-09-06T00:37:10.547Z,16.60
2018-09-06T00:39:37.766Z,16.50
2018-09-06T00:42:05.011Z,16.50
2018-09-06T00:44:32.305Z,16.50
2018-09-06T00:46:59.510Z,16.40
2018-09-06T00:49:26.744Z,16.50
2018-09-06T00:51:53.942Z,16.50
2018-09-06T00:54:21.148Z,16.40
2018-09-06T00:56:48.389Z,16.30
2018-09-06T00:59:15.681Z,16.30
2018-09-06T01:01:42.894Z,16.30
2018-09-06T01:04:10.110Z,16.30
2018-09-06T01:06:37.349Z,16.30
2018-09-06T01:09:05.528Z,16.30
2018-09-06T01:11:32.811Z,16.30
2018-09-06T01:14:00.049Z,16.20
2018-09-06T01:16:27.285Z,16.30
2018-09-06T01:18:54.516Z,16.30
2018-09-06T01:21:21.722Z,16.20
2018-09-06T01:23:48.942Z,16.30
2018-09-06T01:26:16.170Z,16.30
2018-09-06T01:28:43.433Z,16.20
2018-09-06T01:31:10.635Z,16.10
2018-09-06T01:33:37.896Z,16.20
2018-09-06T01:36:10.750Z,16.20
2018-09-06T01:38:38.929Z,16.20
2018-09-06T01:41:06.085Z,16.10
2018-09-06T01:43:33.293Z,16.10
2018-09-06T01:46:00.505Z,16.10
2018-09-06T01:48:27.757Z,16.00
2018-09-06T01:50:55.029Z,16.00
2018-09-06T01:53:22.270Z,15.90
2018-09-06T01:55:49.474Z,15.90
2018-09-06T01:58:16.757Z,16.00
2018-09-06T02:00:44.031Z,15.90
2018-09-06T02:03:11.306Z,15.90
2018-09-06T02:05:38.601Z,15.90
2018-09-06T02:08:07.051Z,15.90
2018-09-06T02:10:34.849Z,15.80
2018-09-06T02:13:02.122Z,15.80
2018-09-06T02:15:29.514Z,15.80
2018-09-06T02:17:56.785Z,15.80
2018-09-06T02:20:24.161Z,15.80
2018-09-06T02:22:51.449Z,15.80
2018-09-06T02:25:18.765Z,15.70
2018-09-06T02:27:46.033Z,15.70
2018-09-06T02:30:13.321Z,15.70
2018-09-06T02:32:40.596Z,15.60
2018-09-06T02:35:07.914Z,15.50
2018-09-06T02:37:35.263Z,15.60
2018-09-06T02:40:02.559Z,15.60
2018-09-06T02:42:29.842Z,15.50
2018-09-06T02:44:57.106Z,15.50
2018-09-06T02:47:24.384Z,15.50
2018-09-06T02:49:57.289Z,15.50
2018-09-06T02:52:24.585Z,15.50
2018-09-06T02:54:51.857Z,15.50
2018-09-06T02:57:19.136Z,15.50
2018-09-06T02:59:46.565Z,15.50
2018-09-06T03:02:13.874Z,15.40
2018-09-06T03:04:41.204Z,15.30
2018-09-06T03:07:08.489Z,15.30
2018-09-06T03:09:35.808Z,15.20
2018-09-06T03:12:04.583Z,15.20
2018-09-06T03:14:31.909Z,15.20
2018-09-06T03:16:59.252Z,15.20
2018-09-06T03:19:26.841Z,15.20
2018-09-06T03:21:54.141Z,15.30
2018-09-06T03:24:21.424Z,15.30
2018-09-06T03:26:48.682Z,15.20
2018-09-06T03:29:15.965Z,15.10
2018-09-06T03:31:43.246Z,15.10
2018-09-06T03:34:10.514Z,15.20
2018-09-06T03:36:37.774Z,15.20
2018-09-06T03:39:06.417Z,15.20
2018-09-06T03:41:33.721Z,15.20
2018-09-06T03:44:01.022Z,15.20
2018-09-06T03:46:28.356Z,15.10
2018-09-06T03:48:55.637Z,15.00
2018-09-06T03:51:22.916Z,15.00
2018-09-06T03:53:50.202Z,15.00
2018-09-06T03:56:17.502Z,14.90
2018-09-06T03:58:44.797Z,15.00
2018-09-06T04:01:12.109Z,14.90
2018-09-06T04:03:39.401Z,15.00
2018-09-06T04:06:06.677Z,14.90
2018-09-06T04:08:33.947Z,14.90
2018-09-06T04:11:01.233Z,14.80
2018-09-06T04:13:28.525Z,14.80
2018-09-06T04:15:55.782Z,15.00
2018-09-06T04:18:23.118Z,15.00
2018-09-06T04:20:50.493Z,14.90
2018-09-06T04:23:17.801Z,14.90
2018-09-06T04:25:45.125Z,14.80
2018-09-06T04:28:12.420Z,14.80
2018-09-06T04:30:39.737Z,14.80
2018-09-06T04:33:07.070Z,14.80
2018-09-06T04:35:34.370Z,14.80
2018-09-06T04:38:01.634Z,14.80
2018-09-06T04:40:28.918Z,14.90
2018-09-06T04:42:56.188Z,14.90
2018-09-06T04:45:23.454Z,14.90
2018-09-06T04:47:50.713Z,14.80
2018-09-06T04:50:18.061Z,14.80
2018-09-06T04:52:45.320Z,14.80
2018-09-06T04:55:12.655Z,14.80
2018-09-06T04:57:39.964Z,14.80
2018-09-06T05:00:07.275Z,14.80
2018-09-06T05:02:34.557Z,14.80
2018-09-06T05:05:01.858Z,14.80
2018-09-06T05:07:29.113Z,14.90
2018-09-06T05:09:56.479Z,14.80
2018-09-06T05:12:23.750Z,14.80
2018-09-06T05:14:51.164Z,14.80
2018-09-06T05:17:18.472Z,14.70
2018-09-06T05:19:45.737Z,14.70
2018-09-06T05:22:13.018Z,14.80
2018-09-06T05:24:40.298Z,14.90
2018-09-06T05:27:07.574Z,14.90
2018-09-06T05:29:34.838Z,14.90
2018-09-06T05:32:02.278Z,14.90
2018-09-06T05:34:29.559Z,15.00
2018-09-06T05:36:56.833Z,15.00
2018-09-06T05:39:24.105Z,15.00
2018-09-06T05:41:51.394Z,14.90
2018-09-06T05:44:18.679Z,14.90
2018-09-06T05:46:46.009Z,15.00
2018-09-06T05:49:13.316Z,15.10
2018-09-06T05:51:40.601Z,15.20
2018-09-06T05:54:07.945Z,15.20
2018-09-06T05:56:35.249Z,15.30
2018-09-06T05:59:02.541Z,15.30
2018-09-06T06:01:29.806Z,15.40
2018-09-06T06:03:57.106Z,15.40
2018-09-06T06:06:24.368Z,15.40
2018-09-06T06:08:51.689Z,15.50
2018-09-06T06:11:19.660Z,15.60
2018-09-06T06:13:46.943Z,15.60
2018-09-06T06:16:14.341Z,15.70
2018-09-06T06:18:41.709Z,15.80
2018-09-06T06:21:09.069Z,15.90
2018-09-06T06:23:36.397Z,15.90
2018-09-06T06:26:05.655Z,16.00
2018-09-06T06:28:33.013Z,16.10
2018-09-06T06:31:00.290Z,16.10
2018-09-06T06:33:27.657Z,16.20
2018-09-06T06:35:54.934Z,16.30
2018-09-06T06:38:22.207Z,16.30
2018-09-06T06:40:49.486Z,16.40
2018-09-06T06:43:16.810Z,16.40
2018-09-06T06:45:44.077Z,16.50
2018-09-06T06:48:11.345Z,16.50
2018-09-06T06:50:38.786Z,16.60
2018-09-06T06:53:06.063Z,16.70
2018-09-06T06:55:33.337Z,16.80
2018-09-06T06:58:00.589Z,16.80
2018-09-06T07:00:27.822Z,16.90
2018-09-06T07:02:55.024Z,17.00
2018-09-06T07:05:22.235Z,17.00
2018-09-06T07:07:49.773Z,17.10
2018-09-06T07:10:17.027Z,17.20
2018-09-06T07:12:44.233Z,17.20
2018-09-06T07:15:11.546Z,17.30
2018-09-06T07:17:38.833Z,17.30
2018-09-06T07:20:06.101Z,17.40
2018-09-06T07:22:33.577Z,17.40
2018-09-06T07:25:01.322Z,17.50
2018-09-06T07:27:28.557Z,17.50
2018-09-06T07:29:55.957Z,17.60
2018-09-06T07:32:23.187Z,17.70
2018-09-06T07:34:50.414Z,17.80
2018-09-06T07:37:17.625Z,17.80
2018-09-06T07:39:44.857Z,17.90
2018-09-06T07:42:12.067Z,18.00
2018-09-06T07:44:39.294Z,18.10
2018-09-06T07:47:06.522Z,18.20
2018-09-06T07:49:33.727Z,18.30
2018-09-06T07:52:00.950Z,18.30
2018-09-06T07:54:28.150Z,18.40
2018-09-06T07:56:55.389Z,18.50
2018-09-06T07:59:22.605Z,18.60
2018-09-06T08:01:49.834Z,18.60
2018-09-06T08:04:17.071Z,18.70
2018-09-06T08:06:44.338Z,18.80
2018-09-06T08:09:12.097Z,18.90
2018-09-06T08:11:40.099Z,19.00
2018-09-06T08:14:07.345Z,19.00
2018-09-06T08:16:34.793Z,19.10
2018-09-06T08:19:02.069Z,19.20
2018-09-06T08:21:29.497Z,19.30
2018-09-06T08:23:56.722Z,19.30
2018-09-06T08:26:23.981Z,19.40
2018-09-06T08:28:51.203Z,19.50
2018-09-06T08:31:18.471Z,19.60
2018-09-06T08:33:45.648Z,19.70
2018-09-06T08:36:12.866Z,19.80
2018-09-06T08:38:40.092Z,19.90
2018-09-06T08:41:07.317Z,19.90
2018-09-06T08:43:34.569Z,20.10
2018-09-06T08:46:01.817Z,20.10
2018-09-06T08:48:29.055Z,20.20
2018-09-06T08:50:56.266Z,20.20
2018-09-06T08:53:23.493Z,20.30
2018-09-06T08:55:50.737Z,20.40
2018-09-06T08:58:18.046Z,20.40
2018-09-06T09:00:51.150Z,20.50
2018-09-06T09:03:18.435Z,20.60
2018-09-06T09:05:45.715Z,20.60
2018-09-06T09:08:13.035Z,20.70
2018-09-06T09:10:40.341Z,20.80
2018-09-06T09:13:07.645Z,20.80
2018-09-06T09:15:34.942Z,20.90
2018-09-06T09:18:02.245Z,21.00
2018-09-06T09:20:29.537Z,21.20
2018-09-06T09:22:56.830Z,21.30
2018-09-06T09:25:24.206Z,21.40
2018-09-06T09:27:51.488Z,21.40
2018-09-06T09:30:18.790Z,21.60
2018-09-06T09:32:46.109Z,21.60
2018-09-06T09:35:13.428Z,21.70
2018-09-06T09:37:40.741Z,21.70
2018-09-06T09:40:08.046Z,21.80
2018-09-06T09:42:35.365Z,21.90
2018-09-06T09:45:02.705Z,22.10
2018-09-06T09:49:56.825Z,22.20
2018-09-06T09:52:24.113Z,22.30
2018-09-06T09:54:51.396Z,22.40
2018-09-06T09:57:18.605Z,22.50
2018-09-06T09:59:45.877Z,22.60
2018-09-06T10:02:18.686Z,22.60
2018-09-06T10:04:51.714Z,22.70
2018-09-06T10:07:24.701Z,22.70
2018-09-06T10:09:51.929Z,22.90
2018-09-06T10:12:19.217Z,22.90
2018-09-06T10:14:46.424Z,22.90
2018-09-06T10:17:13.748Z,22.90
2018-09-06T10:19:40.914Z,23.00
2018-09-06T10:22:08.162Z,23.00
2018-09-06T10:24:35.385Z,23.00
2018-09-06T10:27:02.729Z,23.00
2018-09-06T10:29:30.136Z,23.10
2018-09-06T10:31:57.441Z,23.10
2018-09-06T10:34:24.734Z,23.10
2018-09-06T10:36:52.047Z,23.00
2018-09-06T10:39:19.323Z,23.00
2018-09-06T10:41:46.605Z,23.00
2018-09-06T10:44:13.866Z,23.00
2018-09-06T10:46:41.147Z,23.00
2018-09-06T10:49:08.425Z,23.00
2018-09-06T10:51:35.743Z,23.20
2018-09-06T10:54:03.050Z,23.20
2018-09-06T10:56:30.413Z,23.30
2018-09-06T10:58:57.720Z,23.30
2018-09-06T11:01:25.182Z,23.30
2018-09-06T11:03:54.749Z,23.40
2018-09-06T11:06:22.173Z,23.40
2018-09-06T11:08:49.454Z,23.50
2018-09-06T11:11:16.729Z,23.70
2018-09-06T11:13:44.030Z,23.70
2018-09-06T11:16:11.457Z,23.80
2018-09-06T11:18:38.889Z,23.90
2018-09-06T11:21:06.311Z,23.90
2018-09-06T11:23:33.594Z,23.90
2018-09-06T11:26:00.838Z,23.80
2018-09-06T11:28:28.119Z,23.70
2018-09-06T11:30:55.534Z,23.60
2018-09-06T11:33:22.909Z,23.60
2018-09-06T11:35:50.106Z,23.50
2018-09-06T11:38:17.405Z,23.50
2018-09-06T11:40:44.887Z,23.50
2018-09-06T11:43:12.197Z,23.50
2018-09-06T11:45:39.473Z,23.40
2018-09-06T11:48:06.801Z,23.30
2018-09-06T11:50:34.137Z,23.30
2018-09-06T11:53:01.437Z,23.10
2018-09-06T11:55:28.709Z,22.90
2018-09-06T11:57:56.023Z,22.80
2018-09-06T12:00:23.630Z,22.60
2018-09-06T12:02:50.925Z,22.40
2018-09-06T12:05:18.225Z,22.20
2018-09-06T12:07:45.553Z,22.10
2018-09-06T12:10:12.849Z,22.20
2018-09-06T12:12:40.166Z,22.20
2018-09-06T12:15:07.491Z,22.30
2018-09-06T12:17:34.765Z,22.40
2018-09-06T12:20:02.078Z,22.50
2018-09-06T12:22:29.350Z,22.50
2018-09-06T12:24:56.737Z,22.60
2018-09-06T12:27:24.013Z,22.60
2018-09-06T12:29:51.305Z,22.60
2018-09-06T12:32:18.639Z,22.60
2018-09-06T12:34:45.924Z,22.70
2018-09-06T12:37:14.002Z,22.80
2018-09-06T12:39:42.714Z,22.80
2018-09-06T12:42:10.273Z,22.70
2018-09-06T12:44:37.557Z,22.80
2018-09-06T12:47:04.837Z,22.70
2018-09-06T12:49:32.270Z,22.70
2018-09-06T12:51:59.552Z,22.70
2018-09-06T12:54:26.837Z,22.70
2018-09-06T12:56:54.141Z,22.80
2018-09-06T12:59:21.837Z,22.90
2018-09-06T13:01:49.046Z,22.80
2018-09-06T13:04:16.263Z,22.80
2018-09-06T13:06:43.493Z,22.90
2018-09-06T13:09:10.706Z,23.00
2018-09-06T13:11:38.409Z,23.00
2018-09-06T13:14:05.638Z,23.10
2018-09-06T13:16:32.873Z,23.20
2018-09-06T13:19:00.209Z,23.30
2018-09-06T13:21:27.430Z,23.50
2018-09-06T13:23:54.731Z,23.50
2018-09-06T13:26:22.060Z,23.50
2018-09-06T13:28:49.241Z,23.50
2018-09-06T13:31:16.553Z,23.50
2018-09-06T13:33:43.774Z,23.50
2018-09-06T13:36:11.805Z,23.60
2018-09-06T13:38:39.033Z,23.70
2018-09-06T13:41:06.289Z,23.60
2018-09-06T13:43:33.514Z,23.70
2018-09-06T13:46:00.729Z,23.70
2018-09-06T13:48:27.937Z,23.70
2018-09-06T13:50:55.272Z,23.80
2018-09-06T13:53:22.489Z,23.80
2018-09-06T13:55:50.086Z,23.80
2018-09-06T13:58:17.394Z,23.90
2018-09-06T14:00:44.610Z,23.90
2018-09-06T14:03:11.901Z,24.00
2018-09-06T14:05:39.164Z,23.90
2018-09-06T14:08:06.470Z,23.80
2018-09-06T14:10:33.749Z,23.60
2018-09-06T14:13:01.050Z,23.60
2018-09-06T14:15:28.301Z,23.60
2018-09-06T14:17:55.633Z,23.70
2018-09-06T14:20:22.898Z,23.70
2018-09-06T14:22:50.162Z,23.60
2018-09-06T14:25:17.426Z,23.50
2018-09-06T14:27:44.702Z,23.50
2018-09-06T14:30:11.979Z,23.40
2018-09-06T14:32:39.277Z,23.40
2018-09-06T14:35:06.565Z,23.30
2018-09-06T14:37:33.826Z,23.30
2018-09-06T14:40:01.098Z,23.30
2018-09-06T14:42:28.379Z,23.20
2018-09-06T14:44:55.689Z,23.10
2018-09-06T14:47:22.966Z,23.00
2018-09-06T14:49:50.265Z,22.90
2018-09-06T14:52:17.550Z,22.80
2018-09-06T14:54:44.828Z,22.70
2018-09-06T14:57:12.115Z,22.60
2018-09-06T14:59:39.422Z,22.40
2018-09-06T15:02:06.723Z,22.30
2018-09-06T15:04:33.998Z,22.20
2018-09-06T15:07:01.251Z,22.00
2018-09-06T15:09:28.529Z,21.90
2018-09-06T15:11:55.799Z,21.70
2018-09-06T15:14:23.070Z,21.60
2018-09-06T15:16:50.333Z,21.40
2018-09-06T15:19:17.618Z,21.20
2018-09-06T15:21:44.889Z,21.00
2018-09-06T15:24:12.166Z,21.00
2018-09-06T15:26:39.433Z,20.90
2018-09-06T15:29:06.702Z,20.80
2018-09-06T15:31:33.969Z,20.70
2018-09-06T15:34:01.235Z,20.70
2018-09-06T15:36:28.505Z,20.60
2018-09-06T15:38:55.824Z,20.40
2018-09-06T15:41:23.137Z,20.40
2018-09-06T15:43:50.449Z,20.40
2018-09-06T15:46:17.989Z,20.30
2018-09-06T15:48:45.331Z,20.30
2018-09-06T15:51:12.589Z,20.30
2018-09-06T15:53:39.863Z,20.20
2018-09-06T15:56:07.417Z,20.10
2018-09-06T15:58:34.649Z,20.10
2018-09-06T16:01:01.901Z,19.90
2018-09-06T16:03:29.106Z,19.90
2018-09-06T16:05:56.310Z,19.60
2018-09-06T16:08:23.840Z,19.60
2018-09-06T16:10:51.080Z,19.50
2018-09-06T16:13:18.305Z,19.50
2018-09-06T16:15:45.569Z,19.40
2018-09-06T16:18:12.814Z,19.30
2018-09-06T16:20:40.022Z,19.20
2018-09-06T16:23:07.229Z,19.20
2018-09-06T16:25:34.433Z,19.20
2018-09-06T16:28:01.666Z,19.10
2018-09-06T16:30:28.870Z,19.10
2018-09-06T16:32:56.105Z,19.20
2018-09-06T16:35:23.350Z,19.10
2018-09-06T16:37:50.558Z,19.10
2018-09-06T16:40:17.799Z,19.10
2018-09-06T16:42:45.025Z,19.00
2018-09-06T16:45:12.246Z,19.00
2018-09-06T16:47:39.449Z,18.80
2018-09-06T16:50:06.666Z,18.80
2018-09-06T16:52:33.936Z,18.80
2018-09-06T16:55:01.133Z,18.90
2018-09-06T16:57:28.342Z,18.90
2018-09-06T16:59:55.593Z,18.80
2018-09-06T17:02:22.822Z,18.80
2018-09-06T17:04:50.065Z,18.70
2018-09-06T17:07:17.316Z,18.70
2018-09-06T17:09:44.558Z,18.60
2018-09-06T17:12:11.769Z,18.70
2018-09-06T17:14:39.163Z,18.60
2018-09-06T17:17:06.396Z,18.50
2018-09-06T17:19:33.614Z,18.70
2018-09-06T17:22:00.843Z,18.70
2018-09-06T17:24:28.062Z,18.80
2018-09-06T17:26:55.517Z,18.70
2018-09-06T17:29:22.909Z,18.50
2018-09-06T17:31:50.128Z,18.60
2018-09-06T17:34:17.367Z,18.60
2018-09-06T17:36:44.581Z,18.70
2018-09-06T17:39:12.624Z,18.70
2018-09-06T17:41:39.877Z,18.70
2018-09-06T17:44:07.085Z,18.80
2018-09-06T17:46:34.393Z,18.70
2018-09-06T17:49:01.626Z,18.80
2018-09-06T17:51:28.844Z,18.70
2018-09-06T17:53:56.053Z,18.80
2018-09-06T17:56:23.342Z,18.80
2018-09-06T17:58:50.693Z,18.80
2018-09-06T18:01:27.689Z,18.60
2018-09-06T18:03:54.970Z,18.60
2018-09-06T18:06:22.281Z,18.60
2018-09-06T18:08:49.608Z,18.60
2018-09-06T18:11:16.909Z,18.60
2018-09-06T18:13:44.222Z,18.60
2018-09-06T18:16:11.857Z,18.60
2018-09-06T18:18:39.189Z,18.60
2018-09-06T18:21:06.501Z,18.70
2018-09-06T18:23:33.953Z,18.60
2018-09-06T18:26:01.221Z,18.60
2018-09-06T18:28:28.582Z,18.50
2018-09-06T18:30:55.893Z,18.50
2018-09-06T18:33:23.273Z,18.40
2018-09-06T18:35:50.555Z,18.40
2018-09-06T18:38:17.845Z,18.40
2018-09-06T18:40:45.127Z,18.40
2018-09-06T18:43:12.417Z,18.50
2018-09-06T18:45:39.705Z,18.50
2018-09-06T18:48:07.072Z,18.50
2018-09-06T18:50:34.378Z,18.50
2018-09-06T18:53:01.718Z,18.60
2018-09-06T18:55:29.131Z,18.50
2018-09-06T18:57:56.741Z,18.50
2018-09-06T19:00:23.965Z,18.50
2018-09-06T19:02:51.158Z,18.60
2018-09-06T19:05:18.505Z,18.60
2018-09-06T19:07:45.741Z,18.60
2018-09-06T19:10:12.962Z,18.60
2018-09-06T19:12:40.154Z,18.60
2018-09-06T19:15:07.377Z,18.60
2018-09-06T19:17:34.606Z,18.60
2018-09-06T19:20:02.261Z,18.60
2018-09-06T19:22:29.554Z,18.60
2018-09-06T19:24:56.825Z,18.60
2018-09-06T19:27:24.050Z,18.60
2018-09-06T19:29:51.261Z,18.60
2018-09-06T19:32:18.579Z,18.70
2018-09-06T19:34:45.825Z,18.70
2018-09-06T19:37:13.036Z,18.60
2018-09-06T19:39:40.398Z,18.50
2018-09-06T19:42:07.626Z,18.40
2018-09-06T19:44:34.911Z,18.30
2018-09-06T19:47:02.214Z,18.30
2018-09-06T19:49:29.438Z,18.30
2018-09-06T19:51:56.658Z,18.30
2018-09-06T19:54:24.056Z,18.20
2018-09-06T19:56:51.261Z,18.30
2018-09-06T19:59:18.985Z,18.30
2018-09-06T20:01:46.261Z,18.30
2018-09-06T20:04:13.457Z,18.30
2018-09-06T20:06:40.669Z,18.30
2018-09-06T20:09:08.196Z,18.30
2018-09-06T20:11:35.509Z,18.30
2018-09-06T20:14:02.946Z,18.40
2018-09-06T20:16:30.700Z,18.40
2018-09-06T20:18:57.937Z,18.40
2018-09-06T20:21:25.155Z,18.40
2018-09-06T20:23:52.454Z,18.40
2018-09-06T20:26:19.681Z,18.40
2018-09-06T20:28:46.873Z,18.50
2018-09-06T20:31:14.098Z,18.40
2018-09-06T20:33:41.328Z,18.30
2018-09-06T20:36:08.537Z,18.30
2018-09-06T20:38:35.741Z,18.20
2018-09-06T20:41:02.973Z,18.20
2018-09-06T20:43:30.234Z,18.30
2018-09-06T20:45:57.605Z,18.30
2018-09-06T20:48:24.824Z,18.30
2018-09-06T20:50:52.062Z,18.30
2018-09-06T20:53:19.386Z,18.30
2018-09-06T20:55:47.152Z,18.20
2018-09-06T20:58:14.446Z,18.20
2018-09-06T21:00:41.693Z,18.20
2018-09-06T21:03:09.127Z,18.20
2018-09-06T21:05:36.365Z,18.20
2018-09-06T21:08:03.663Z,18.20
2018-09-06T21:10:30.943Z,18.20
2018-09-06T21:12:58.582Z,18.30
2018-09-06T21:15:25.895Z,18.20
2018-09-06T21:17:53.201Z,18.20
2018-09-06T21:20:20.473Z,18.20
2018-09-06T21:22:47.784Z,18.20
2018-09-06T21:25:15.042Z,18.20
2018-09-06T21:27:42.294Z,18.20
2018-09-06T21:30:09.623Z,18.20
2018-09-06T21:32:36.943Z,18.20
2018-09-06T21:35:04.883Z,18.10
2018-09-06T21:37:33.389Z,18.10
2018-09-06T21:40:00.748Z,18.10
2018-09-06T21:42:27.977Z,18.10
2018-09-06T21:44:55.468Z,18.10
2018-09-06T21:47:23.101Z,18.10
2018-09-06T21:49:50.363Z,18.10
2018-09-06T21:52:17.621Z,18.10
2018-09-06T21:54:44.921Z,18.00
2018-09-06T21:57:12.227Z,18.10
2018-09-06T21:59:39.501Z,18.00
2018-09-06T22:02:10.325Z,18.00
2018-09-06T22:04:37.649Z,17.90
2018-09-06T22:07:04.920Z,17.90
2018-09-06T22:09:32.205Z,17.90
2018-09-06T22:11:59.469Z,17.80
2018-09-06T22:14:26.742Z,17.80
2018-09-06T22:16:54.046Z,17.70
2018-09-06T22:19:21.451Z,17.70
2018-09-06T22:21:48.753Z,17.60
2018-09-06T22:24:16.037Z,17.60
2018-09-06T22:26:43.296Z,17.70
2018-09-06T22:29:10.585Z,17.70
2018-09-06T22:31:37.877Z,17.80
2018-09-06T22:34:05.150Z,17.80
2018-09-06T22:36:32.471Z,17.80
2018-09-06T22:38:59.734Z,17.80
2018-09-06T22:41:27.178Z,17.80
2018-09-06T22:43:54.453Z,17.80
2018-09-06T22:46:21.754Z,17.90
2018-09-06T22:48:49.068Z,17.90
2018-09-06T22:51:16.313Z,17.80
2018-09-06T22:53:43.617Z,17.90
2018-09-06T22:56:10.917Z,17.90
2018-09-06T22:58:38.185Z,17.80
2018-09-06T23:01:05.985Z,17.80
2018-09-06T23:03:40.185Z,17.80
2018-09-06T23:06:07.809Z,17.80
2018-09-06T23:08:35.157Z,17.70
2018-09-06T23:11:02.569Z,17.60
2018-09-06T23:13:30.080Z,17.60
2018-09-06T23:15:57.450Z,17.70
2018-09-06T23:18:24.721Z,17.80
2018-09-06T23:20:52.019Z,17.80
2018-09-06T23:23:19.293Z,17.80
2018-09-06T23:25:46.677Z,17.80
2018-09-06T23:28:13.926Z,17.80
2018-09-06T23:30:41.507Z,17.80
2018-09-06T23:33:08.795Z,17.80
2018-09-06T23:35:36.066Z,17.80
2018-09-06T23:38:03.366Z,17.80
2018-09-06T23:40:35.460Z,17.80
2018-09-06T23:43:02.753Z,17.80
2018-09-06T23:45:30.082Z,17.80
2018-09-06T23:47:57.345Z,17.80
2018-09-06T23:50:24.653Z,17.90
2018-09-06T23:52:51.977Z,17.80
2018-09-06T23:55:19.380Z,17.80
2018-09-06T23:57:46.681Z,17.80
